Time;durP1;ratioP1;P1;durP2;ratioP2;P2;SDS_P1;SDS_P2;PMS_P1;PMS_P2;Temp;Humidity;BMP_temperature;BMP_pressure;BME280_temperature;BME280_humidity;BME280_pressure;Samples;Min_cycle;Max_cycle;Signal;HPM_P1;HPM_P2
2024/02/23 00:01:31;;;;;;;20.02;11.55;;;;;;;8.61;70.73;99819.94;5099694;28;20235;-64
2024/02/23 00:03:56;;;;;;;22.23;11.40;;;;;;;8.45;71.69;99819.75;5099766;28;20046;-65
2024/02/23 00:06:27;;;;;;;20.85;12.45;;;;;;;8.37;72.76;99821.47;5098234;28;20333;-66
2024/02/23 00:08:55;;;;;;;23.27;15.50;;;;;;;8.43;72.91;99818.25;5099706;28;20047;-64
2024/02/23 00:11:21;;;;;;;19.98;12.30;;;;;;;8.49;72.48;99809.75;5099349;28;20039;-65
2024/02/23 00:13:47;;;;;;;19.95;12.90;;;;;;;8.54;71.79;99815.41;5099573;28;20040;-65
2024/02/23 00:16:12;;;;;;;22.23;13.60;;;;;;;8.47;72.32;99812.53;5098012;28;20058;-64
2024/02/23 00:18:38;;;;;;;21.95;13.02;;;;;;;8.44;73.65;99809.34;5099481;28;20079;-64
2024/02/23 00:21:04;;;;;;;21.48;12.20;;;;;;;8.48;72.82;99806.25;5099163;28;20051;-66
2024/02/23 00:23:29;;;;;;;26.38;13.18;;;;;;;8.51;71.84;99802.50;5099103;28;20043;-65
2024/02/23 00:25:55;;;;;;;20.85;13.05;;;;;;;8.36;72.17;99809.25;5099875;28;20255;-64
2024/02/23 00:28:21;;;;;;;21.88;13.10;;;;;;;8.17;73.89;99810.94;5097432;28;20314;-65
2024/02/23 00:30:46;;;;;;;25.55;13.02;;;;;;;8.19;74.83;99802.88;5099992;28;20066;-65
2024/02/23 00:33:12;;;;;;;25.42;13.98;;;;;;;8.32;74.57;99803.38;5097114;28;20275;-65
2024/02/23 00:35:37;;;;;;;23.08;13.13;;;;;;;8.39;71.39;99795.75;5099323;28;20032;-66
2024/02/23 00:38:03;;;;;;;23.30;13.50;;;;;;;8.44;69.81;99793.50;5097562;28;20037;-64
2024/02/23 00:40:29;;;;;;;22.15;13.88;;;;;;;8.30;69.46;99786.84;5098584;28;20203;-64
2024/02/23 00:42:54;;;;;;;20.20;14.38;;;;;;;8.22;68.83;99789.41;5097827;28;20031;-65
2024/02/23 00:45:21;;;;;;;28.67;14.50;;;;;;;8.23;69.56;99788.41;5098359;28;20075;-64
2024/02/23 00:47:47;;;;;;;28.42;15.38;;;;;;;8.08;73.11;99792.50;5098471;28;20036;-64
2024/02/23 00:50:12;;;;;;;24.67;14.23;;;;;;;7.96;74.74;99786.59;5098035;28;20325;-64
2024/02/23 00:52:38;;;;;;;26.88;15.43;;;;;;;8.01;74.29;99787.81;5096986;28;20032;-65
2024/02/23 00:55:04;;;;;;;27.08;14.95;;;;;;;7.62;72.96;99789.72;5097846;28;20059;-64
2024/02/23 00:57:30;;;;;;;21.60;14.20;;;;;;;7.81;70.78;99786.22;5096824;28;20268;-64
2024/02/23 00:59:58;;;;;;;24.90;15.27;;;;;;;7.88;69.82;99779.41;5096134;28;20097;-65
2024/02/23 01:02:24;;;;;;;23.35;14.95;;;;;;;7.91;70.92;99787.03;5098927;28;20237;-65
2024/02/23 01:04:50;;;;;;;25.27;15.82;;;;;;;7.87;69.14;99777.72;5097774;28;20046;-64
2024/02/23 01:07:15;;;;;;;23.20;15.85;;;;;;;7.82;69.44;99785.25;5097740;28;20195;-66
2024/02/23 01:09:41;;;;;;;24.92;16.02;;;;;;;7.83;69.81;99784.28;5095754;28;20074;-68
2024/02/23 01:12:06;;;;;;;23.80;15.73;;;;;;;7.85;72.10;99777.03;5098225;28;20101;-68
2024/02/23 01:14:32;;;;;;;24.95;16.05;;;;;;;7.90;72.50;99769.53;5097454;28;20092;-68
2024/02/23 01:16:58;;;;;;;26.05;14.75;;;;;;;7.93;71.93;99776.31;5097803;28;20295;-64
2024/02/23 01:19:26;;;;;;;29.58;16.95;;;;;;;7.85;72.18;99769.13;5097234;28;20067;-64
2024/02/23 01:21:59;;;;;;;28.52;16.85;;;;;;;7.79;72.04;99768.88;5097305;28;20028;-65
2024/02/23 01:24:29;;;;;;;30.38;17.10;;;;;;;7.87;72.99;99772.47;5096263;28;20047;-65
2024/02/23 01:26:55;;;;;;;35.10;17.25;;;;;;;7.89;72.66;99769.69;5097552;28;20024;-64
2024/02/23 01:29:22;;;;;;;34.50;18.73;;;;;;;7.87;72.98;99767.19;5097149;28;20308;-65
2024/02/23 01:31:48;;;;;;;34.83;17.80;;;;;;;7.89;73.47;99765.25;5097778;28;20103;-65
2024/02/23 01:34:14;;;;;;;26.67;17.02;;;;;;;7.96;72.31;99757.59;5097373;28;20045;-65
2024/02/23 01:36:39;;;;;;;27.63;15.57;;;;;;;7.99;71.87;99757.28;5097067;28;20254;-65
2024/02/23 01:39:05;;;;;;;29.60;16.52;;;;;;;7.95;70.05;99748.84;5098127;28;20089;-65
2024/02/23 01:41:32;;;;;;;30.58;17.90;;;;;;;7.78;70.15;99757.50;5096965;28;20853;-65
2024/02/23 01:43:57;;;;;;;31.67;19.20;;;;;;;7.78;71.98;99754.03;5098887;28;20071;-66
2024/02/23 01:46:23;;;;;;;34.42;17.15;;;;;;;7.71;73.29;99755.59;5097026;28;20253;-64
2024/02/23 01:48:49;;;;;;;29.13;15.45;;;;;;;7.81;71.90;99761.66;5098899;28;20089;-65
2024/02/23 01:51:14;;;;;;;24.77;15.77;;;;;;;7.77;72.15;99755.03;5096065;28;20233;-65
2024/02/23 01:53:40;;;;;;;26.20;15.02;;;;;;;7.69;72.59;99747.81;5097591;28;20055;-66
2024/02/23 01:56:06;;;;;;;24.55;13.77;;;;;;;7.67;72.93;99744.50;5096764;28;20028;-67
2024/02/23 01:58:35;;;;;;;25.05;13.23;;;;;;;7.54;74.21;99746.63;5096902;28;20028;-66
2024/02/23 02:01:01;;;;;;;25.17;15.02;;;;;;;7.49;74.91;99741.78;5096296;28;20032;-65
2024/02/23 02:03:26;;;;;;;21.42;13.27;;;;;;;7.61;73.34;99735.38;5096559;28;20109;-64
2024/02/23 02:05:55;;;;;;;23.10;13.27;;;;;;;7.56;71.99;99734.13;5095880;28;20028;-65
2024/02/23 02:08:20;;;;;;;22.35;12.65;;;;;;;7.29;66.37;99740.16;5097818;28;20036;-64
2024/02/23 02:10:47;;;;;;;28.13;15.20;;;;;;;7.09;68.07;99741.94;5097538;28;20333;-67
2024/02/23 02:13:12;;;;;;;28.63;15.02;;;;;;;7.12;69.74;99744.31;5096998;28;20032;-67
2024/02/23 02:15:38;;;;;;;36.95;17.25;;;;;;;6.98;71.11;99745.56;5097378;28;20043;-66
2024/02/23 02:18:04;;;;;;;30.17;16.83;;;;;;;7.00;68.53;99743.63;5096476;28;20292;-68
2024/02/23 02:20:32;;;;;;;28.95;14.93;;;;;;;6.88;69.19;99746.53;5097141;28;20046;-68
2024/02/23 02:22:58;;;;;;;34.70;17.60;;;;;;;6.93;71.03;99746.94;5094779;28;20044;-67
2024/02/23 02:25:23;;;;;;;32.22;17.40;;;;;;;6.96;73.45;99752.78;5097049;28;20039;-67
2024/02/23 02:27:49;;;;;;;26.65;15.68;;;;;;;6.91;71.24;99751.53;5095695;28;20043;-67
2024/02/23 02:30:14;;;;;;;31.73;17.33;;;;;;;6.86;74.57;99759.00;5096837;28;20455;-67
2024/02/23 02:32:40;;;;;;;41.25;20.73;;;;;;;6.81;76.62;99753.31;5095870;28;20080;-67
2024/02/23 02:35:06;;;;;;;63.33;24.15;;;;;;;6.86;76.09;99753.72;5097398;28;20027;-67
2024/02/23 02:37:31;;;;;;;40.00;20.23;;;;;;;6.60;77.52;99753.44;5096792;28;20246;-64
2024/02/23 02:39:56;;;;;;;33.95;15.88;;;;;;;6.49;79.21;99748.28;5096712;28;20343;-67
2024/02/23 02:42:22;;;;;;;23.83;14.07;;;;;;;6.48;79.27;99746.63;5095941;28;20244;-65
2024/02/23 02:44:47;;;;;;;44.13;18.90;;;;;;;6.70;78.40;99746.38;5095356;28;20253;-68
2024/02/23 02:47:13;;;;;;;39.17;18.40;;;;;;;6.85;78.29;99746.81;5096027;28;21453;-67
2024/02/23 02:49:40;;;;;;;53.35;22.50;;;;;;;6.83;78.01;99746.13;5095758;28;20032;-68
2024/02/23 02:52:06;;;;;;;34.80;16.88;;;;;;;6.52;79.10;99729.59;5096644;28;20152;-65
2024/02/23 02:54:31;;;;;;;41.67;20.80;;;;;;;6.30;80.92;99743.84;5095323;28;20369;-65
2024/02/23 02:56:57;;;;;;;62.50;25.63;;;;;;;6.49;80.88;99737.78;5093564;28;20043;-65
2024/02/23 02:59:23;;;;;;;64.43;31.45;;;;;;;6.73;79.52;99741.69;5086705;28;20027;-68
2024/02/23 03:01:49;;;;;;;36.03;20.30;;;;;;;6.45;81.38;99745.09;5086212;28;20067;-67
2024/02/23 03:04:14;;;;;;;35.22;18.55;;;;;;;6.73;80.23;99756.63;5091372;28;20103;-67
2024/02/23 03:06:40;;;;;;;27.23;17.45;;;;;;;6.86;79.33;99761.63;5084613;28;20040;-64
2024/02/23 03:09:07;;;;;;;32.92;16.25;;;;;;;6.82;80.00;99765.50;5087513;28;20564;-68
2024/02/23 03:11:33;;;;;;;27.33;16.98;;;;;;;6.96;79.50;99754.56;5094639;28;20242;-67
2024/02/23 03:13:58;;;;;;;28.13;15.43;;;;;;;7.02;80.09;99746.94;5097528;28;20028;-67
2024/02/23 03:16:25;;;;;;;32.80;15.90;;;;;;;7.17;78.92;99754.41;5094100;28;20051;-67
2024/02/23 03:18:51;;;;;;;30.60;17.45;;;;;;;7.12;78.87;99764.53;5096327;28;20082;-67
2024/02/23 03:21:17;;;;;;;34.42;18.15;;;;;;;7.21;77.84;99761.06;5095059;28;20219;-68
2024/02/23 03:23:42;;;;;;;26.80;15.52;;;;;;;7.29;75.46;99764.69;5095786;28;20089;-68
2024/02/23 03:26:08;;;;;;;30.13;18.08;;;;;;;7.25;75.74;99762.44;5094875;28;20035;-66
2024/02/23 03:28:34;;;;;;;28.08;16.52;;;;;;;7.32;76.03;99772.31;5095391;28;20040;-68
2024/02/23 03:31:02;;;;;;;30.25;16.95;;;;;;;7.36;75.54;99771.06;5098661;28;20040;-68
2024/02/23 03:33:28;;;;;;;25.88;15.55;;;;;;;7.22;72.28;99768.00;5100120;28;20048;-68
2024/02/23 03:35:53;;;;;;;30.02;16.95;;;;;;;7.27;73.95;99776.31;5099504;28;20039;-68
2024/02/23 03:38:19;;;;;;;27.25;16.05;;;;;;;7.16;74.66;99769.38;5099533;28;20221;-68
2024/02/23 03:40:45;;;;;;;30.90;16.83;;;;;;;7.18;73.97;99771.88;5099453;28;20036;-67
2024/02/23 03:43:10;;;;;;;31.25;15.13;;;;;;;7.16;73.79;99774.66;5100068;28;20103;-67
2024/02/23 03:45:36;;;;;;;27.88;15.15;;;;;;;7.01;75.59;99765.50;5100950;28;20072;-68
2024/02/23 03:48:04;;;;;;;37.95;17.50;;;;;;;7.12;75.17;99775.06;5099255;28;20152;-68
2024/02/23 03:50:30;;;;;;;29.48;15.18;;;;;;;7.16;74.78;99764.13;5101035;28;20038;-67
2024/02/23 03:52:55;;;;;;;28.55;15.07;;;;;;;7.21;73.97;99763.69;5099062;28;20044;-68
2024/02/23 03:55:21;;;;;;;22.92;13.93;;;;;;;7.27;73.83;99756.06;5100123;28;20024;-65
2024/02/23 03:57:47;;;;;;;26.10;15.38;;;;;;;7.18;72.95;99758.72;5098492;28;20038;-66
2024/02/23 04:00:13;;;;;;;28.52;13.63;;;;;;;7.22;72.90;99762.72;5100850;28;20321;-67
2024/02/23 04:02:39;;;;;;;23.92;14.50;;;;;;;7.20;72.42;99762.03;5100173;28;20257;-67
2024/02/23 04:05:05;;;;;;;23.50;13.57;;;;;;;7.18;71.92;99764.81;5101245;28;20040;-68
2024/02/23 04:07:31;;;;;;;25.88;13.45;;;;;;;6.98;70.97;99747.38;5100553;28;20032;-67
2024/02/23 04:09:56;;;;;;;23.13;13.05;;;;;;;6.99;71.05;99752.50;5100932;28;20225;-67
2024/02/23 04:12:22;;;;;;;28.95;16.02;;;;;;;7.03;72.27;99756.50;5100243;28;20133;-67
2024/02/23 04:14:47;;;;;;;27.27;16.38;;;;;;;7.00;73.13;99750.69;5100500;28;20055;-67
2024/02/23 04:17:13;;;;;;;34.55;18.35;;;;;;;6.85;73.20;99758.16;5097854;28;20038;-68
2024/02/23 04:19:40;;;;;;;38.40;19.27;;;;;;;6.75;74.23;99759.13;5096056;28;20135;-66
2024/02/23 04:22:08;;;;;;;36.42;18.95;;;;;;;6.70;74.72;99749.84;5100345;28;20048;-68
2024/02/23 04:24:34;;;;;;;36.88;22.48;;;;;;;6.79;74.35;99752.63;5099464;28;20116;-68
2024/02/23 04:27:00;;;;;;;51.47;27.83;;;;;;;6.84;74.15;99753.03;5099528;28;20416;-68
2024/02/23 04:29:25;;;;;;;41.05;25.25;;;;;;;6.84;73.32;99758.31;5091322;28;20040;-67
2024/02/23 04:31:51;;;;;;;54.70;29.33;;;;;;;6.71;73.07;99763.84;5100295;28;20256;-67
2024/02/23 04:34:16;;;;;;;57.10;33.30;;;;;;;6.62;73.50;99757.59;5099313;28;20040;-67
2024/02/23 04:36:42;;;;;;;63.83;37.13;;;;;;;6.62;74.99;99769.91;5100136;28;20056;-68
2024/02/23 04:39:08;;;;;;;52.03;29.30;;;;;;;6.53;74.99;99768.09;5099931;28;20040;-67
2024/02/23 04:41:33;;;;;;;66.55;34.78;;;;;;;6.48;75.95;99767.69;5098734;28;20036;-68
2024/02/23 04:44:00;;;;;;;59.17;32.63;;;;;;;6.51;76.44;99773.50;5094248;28;20281;-68
2024/02/23 04:46:26;;;;;;;56.22;29.45;;;;;;;6.55;75.61;99768.78;5098742;28;20048;-67
2024/02/23 04:48:52;;;;;;;50.03;25.85;;;;;;;6.42;75.81;99765.59;5099064;28;20048;-67
2024/02/23 04:51:18;;;;;;;37.80;21.45;;;;;;;6.41;76.50;99770.00;5098769;28;20092;-68
2024/02/23 04:53:44;;;;;;;33.10;18.20;;;;;;;6.42;76.20;99766.41;5097301;28;20039;-68
2024/02/23 04:56:09;;;;;;;29.88;17.60;;;;;;;6.44;75.59;99763.66;5095195;28;20087;-67
2024/02/23 04:58:35;;;;;;;28.45;16.88;;;;;;;6.45;75.91;99763.53;5100617;28;20405;-68
2024/02/23 05:01:00;;;;;;;26.20;17.35;;;;;;;6.45;75.27;99762.69;5092715;28;20040;-68
2024/02/23 05:03:26;;;;;;;35.95;19.10;;;;;;;6.46;75.84;99754.66;5097646;28;20085;-67
2024/02/23 05:05:53;;;;;;;31.20;18.27;;;;;;;6.55;75.08;99769.63;5100239;28;20486;-68
2024/02/23 05:08:24;;;;;;;25.55;16.20;;;;;;;6.50;75.47;99773.63;5099342;28;20043;-68
2024/02/23 05:10:50;;;;;;;21.73;14.10;;;;;;;6.26;76.16;99774.00;5098586;28;20040;-66
2024/02/23 05:13:16;;;;;;;27.52;13.88;;;;;;;6.10;76.30;99779.72;5089558;28;20067;-67
2024/02/23 05:15:41;;;;;;;24.95;14.05;;;;;;;6.03;76.39;99779.41;5099346;28;20036;-67
2024/02/23 05:18:07;;;;;;;28.20;14.55;;;;;;;6.03;76.81;99791.72;5098505;28;20207;-68
2024/02/23 05:20:32;;;;;;;32.88;14.05;;;;;;;5.84;77.64;99783.72;5099437;28;20474;-66
2024/02/23 05:22:58;;;;;;;31.30;12.88;;;;;;;5.77;77.87;99793.91;5098713;28;20032;-68
2024/02/23 05:25:25;;;;;;;24.73;12.93;;;;;;;6.05;77.17;99784.53;5092763;28;20036;-67
2024/02/23 05:27:51;;;;;;;23.00;12.95;;;;;;;6.27;75.63;99796.69;5089377;28;20091;-68
2024/02/23 05:30:16;;;;;;;23.33;12.38;;;;;;;6.38;75.63;99800.06;5098724;28;20345;-66
2024/02/23 05:32:42;;;;;;;21.58;13.48;;;;;;;6.35;75.52;99802.13;5098625;28;20043;-68
2024/02/23 05:35:08;;;;;;;21.23;12.10;;;;;;;6.45;75.83;99799.50;5099414;28;20039;-68
2024/02/23 05:37:35;;;;;;;22.58;12.82;;;;;;;6.48;75.78;99788.72;5099353;28;20047;-67
2024/02/23 05:40:03;;;;;;;22.33;13.18;;;;;;;6.45;74.59;99802.16;5097861;28;20113;-67
2024/02/23 05:42:29;;;;;;;23.92;13.57;;;;;;;6.50;74.26;99806.03;5099687;28;20043;-66
2024/02/23 05:44:54;;;;;;;26.05;13.50;;;;;;;6.45;75.86;99802.97;5099028;28;20043;-68
2024/02/23 05:47:21;;;;;;;24.17;13.10;;;;;;;6.53;73.37;99807.56;5099154;28;20044;-67
2024/02/23 05:49:47;;;;;;;28.42;15.93;;;;;;;6.48;74.56;99801.88;5099240;28;20047;-68
2024/02/23 05:52:12;;;;;;;37.53;17.48;;;;;;;6.57;75.44;99807.16;5098127;28;20306;-67
2024/02/23 05:54:38;;;;;;;62.90;18.27;;;;;;;6.58;74.92;99800.94;5098447;28;20056;-67
2024/02/23 05:57:04;;;;;;;42.25;15.10;;;;;;;6.59;75.41;99805.22;5099398;28;20032;-68
2024/02/23 05:59:30;;;;;;;35.97;15.85;;;;;;;6.73;75.03;99809.25;5099224;28;20047;-68
2024/02/23 06:01:56;;;;;;;34.38;14.77;;;;;;;6.73;75.49;99809.25;5099533;28;20036;-67
2024/02/23 06:04:23;;;;;;;26.20;14.25;;;;;;;6.81;75.17;99813.84;5099152;28;20587;-67
2024/02/23 06:06:49;;;;;;;23.88;14.57;;;;;;;6.89;74.70;99825.34;5098056;28;20032;-67
2024/02/23 06:09:14;;;;;;;29.50;14.85;;;;;;;6.59;76.21;99823.63;5099352;28;20040;-67
2024/02/23 06:11:40;;;;;;;26.20;14.60;;;;;;;6.69;76.45;99834.19;5098587;28;20044;-68
2024/02/23 06:14:05;;;;;;;25.23;15.52;;;;;;;6.75;75.63;99823.13;5099069;28;20349;-67
2024/02/23 06:16:30;;;;;;;35.53;21.02;;;;;;;6.70;76.02;99830.59;5099043;28;20077;-68
2024/02/23 06:18:56;;;;;;;26.70;15.90;;;;;;;6.84;76.69;99834.63;5098844;28;20031;-67
2024/02/23 06:21:22;;;;;;;46.55;35.78;;;;;;;6.97;75.63;99837.84;5098561;28;20032;-68
2024/02/23 06:23:47;;;;;;;58.33;48.58;;;;;;;7.05;76.41;99841.44;5098803;28;20446;-67
2024/02/23 06:26:13;;;;;;;60.50;47.05;;;;;;;7.10;75.95;99853.38;5098296;28;20039;-67
2024/02/23 06:28:41;;;;;;;33.70;21.45;;;;;;;7.25;76.17;99858.09;5098711;28;20419;-68
2024/02/23 06:31:07;;;;;;;27.67;14.88;;;;;;;7.41;76.41;99847.03;5098315;28;20325;-67
2024/02/23 06:33:32;;;;;;;23.08;13.85;;;;;;;7.55;75.44;99843.97;5099040;28;20097;-65
2024/02/23 06:35:58;;;;;;;23.00;13.32;;;;;;;7.61;75.47;99843.41;5098311;28;20095;-64
2024/02/23 06:38:23;;;;;;;30.05;20.98;;;;;;;7.73;75.62;99845.91;5097591;28;20350;-64
2024/02/23 06:40:49;;;;;;;24.35;17.52;;;;;;;7.89;75.89;99856.69;5097832;28;20039;-64
2024/02/23 06:43:14;;;;;;;24.15;13.88;;;;;;;7.98;75.71;99855.84;5097741;28;20040;-66
2024/02/23 06:45:41;;;;;;;26.20;16.30;;;;;;;8.17;75.91;99847.84;5097448;28;20662;-65
2024/02/23 06:48:07;;;;;;;23.98;15.90;;;;;;;8.39;75.17;99841.44;5097656;28;20085;-65
2024/02/23 06:50:33;;;;;;;22.33;16.30;;;;;;;8.47;74.81;99843.34;5097644;28;20221;-65
2024/02/23 06:52:58;;;;;;;24.05;14.63;;;;;;;8.41;75.72;99847.41;5097225;28;20036;-65
2024/02/23 06:55:24;;;;;;;19.55;12.70;;;;;;;8.69;74.52;99842.13;5091960;28;21877;-67
2024/02/23 06:57:49;;;;;;;19.48;12.80;;;;;;;8.94;74.27;99844.91;5094448;28;20367;-67
2024/02/23 07:00:15;;;;;;;35.03;22.75;;;;;;;9.20;73.13;99846.78;5096907;28;20052;-68
2024/02/23 07:02:41;;;;;;;32.20;22.70;;;;;;;9.40;73.65;99850.16;5097512;28;20038;-67
2024/02/23 07:05:07;;;;;;;27.88;18.52;;;;;;;9.59;72.67;99847.34;5097231;28;20402;-68
2024/02/23 07:07:33;;;;;;;22.88;15.50;;;;;;;9.64;72.51;99846.88;5096007;28;20044;-65
2024/02/23 07:09:59;;;;;;;27.50;16.40;;;;;;;9.86;71.03;99849.03;5098211;28;20040;-65
2024/02/23 07:12:27;;;;;;;22.60;14.15;;;;;;;9.67;71.25;99846.56;5096619;28;20069;-64
2024/02/23 07:14:53;;;;;;;21.45;14.07;;;;;;;9.85;71.55;99855.28;5098099;28;20601;-65
2024/02/23 07:17:19;;;;;;;24.08;14.63;;;;;;;9.83;70.82;99854.63;5096421;28;20054;-65
2024/02/23 07:19:45;;;;;;;19.77;11.90;;;;;;;9.85;71.74;99850.84;5097837;28;20100;-66
2024/02/23 07:22:10;;;;;;;21.38;12.60;;;;;;;10.13;70.34;99850.69;5096810;28;20353;-67
2024/02/23 07:24:40;;;;;;;19.52;12.00;;;;;;;10.19;70.71;99847.41;5096955;28;20432;-66
2024/02/23 07:27:06;;;;;;;21.83;13.10;;;;;;;10.40;71.17;99849.69;5097108;28;20055;-65
2024/02/23 07:29:31;;;;;;;19.05;12.82;;;;;;;10.43;70.86;99844.94;5096820;28;20040;-64
2024/02/23 07:31:57;;;;;;;24.27;14.30;;;;;;;10.51;69.13;99838.84;5097308;28;20050;-66
2024/02/23 07:34:22;;;;;;;20.70;13.15;;;;;;;10.65;68.87;99838.25;5097762;28;20036;-65
2024/02/23 07:36:51;;;;;;;20.17;12.98;;;;;;;10.87;68.62;99832.34;5097096;28;20048;-66
2024/02/23 07:39:16;;;;;;;20.38;13.57;;;;;;;11.02;67.06;99827.25;5096505;28;20103;-66
2024/02/23 07:41:42;;;;;;;23.73;15.05;;;;;;;11.08;66.71;99825.78;5096528;28;20226;-66
2024/02/23 07:44:07;;;;;;;26.55;15.73;;;;;;;11.15;66.74;99821.47;5096942;28;20306;-65
2024/02/23 07:46:33;;;;;;;33.17;20.92;;;;;;;11.15;67.33;99819.66;5098016;28;20058;-66
2024/02/23 07:48:58;;;;;;;24.27;14.60;;;;;;;11.39;65.56;99818.84;5096201;28;20077;-66
2024/02/23 07:51:24;;;;;;;23.65;15.35;;;;;;;11.45;65.21;99823.53;5096985;28;20062;-65
2024/02/23 07:53:49;;;;;;;23.23;15.15;;;;;;;11.51;65.47;99814.06;5097046;28;20069;-66
2024/02/23 07:56:14;;;;;;;29.92;17.23;;;;;;;11.57;65.38;99812.56;5096995;28;20043;-65
2024/02/23 07:58:40;;;;;;;23.88;14.85;;;;;;;11.73;65.17;99817.88;5097207;28;20252;-65
2024/02/23 08:01:05;;;;;;;24.50;14.63;;;;;;;11.90;64.95;99813.41;5096818;28;20314;-65
2024/02/23 08:03:31;;;;;;;26.88;15.40;;;;;;;12.04;64.55;99818.00;5096812;28;20051;-65
2024/02/23 08:05:57;;;;;;;30.23;17.60;;;;;;;12.21;63.49;99826.75;5097325;28;20066;-66
2024/02/23 08:08:23;;;;;;;21.35;14.15;;;;;;;12.39;63.25;99827.34;5091892;28;20341;-66
2024/02/23 08:10:49;;;;;;;26.05;17.60;;;;;;;12.36;63.19;99825.03;5092609;28;20088;-64
2024/02/23 08:13:15;;;;;;;25.15;15.48;;;;;;;12.18;63.10;99821.78;5097241;28;20051;-66
2024/02/23 08:15:40;;;;;;;26.73;15.20;;;;;;;12.15;64.89;99821.13;5097630;28;20371;-65
2024/02/23 08:18:06;;;;;;;30.23;15.05;;;;;;;12.29;63.78;99810.78;5101587;28;20028;-65
2024/02/23 08:20:31;;;;;;;23.48;13.77;;;;;;;12.30;64.42;99817.75;5098724;28;20280;-65
2024/02/23 08:22:57;;;;;;;23.13;14.00;;;;;;;12.50;63.47;99815.56;5100398;28;20044;-65
2024/02/23 08:25:22;;;;;;;24.92;15.40;;;;;;;12.67;62.49;99817.16;5092792;28;20032;-65
2024/02/23 08:27:48;;;;;;;23.13;15.23;;;;;;;12.81;62.57;99808.44;5100409;28;20036;-66
2024/02/23 08:30:14;;;;;;;20.92;13.85;;;;;;;12.85;61.86;99815.06;5096733;28;20059;-66
2024/02/23 08:32:40;;;;;;;24.70;14.82;;;;;;;12.91;62.35;99809.03;5099622;28;20063;-65
2024/02/23 08:35:06;;;;;;;26.50;14.57;;;;;;;13.08;61.60;99807.09;5092169;28;20301;-65
2024/02/23 08:37:32;;;;;;;25.33;14.20;;;;;;;13.24;60.73;99804.34;5099890;28;20055;-65
2024/02/23 08:39:58;;;;;;;24.20;16.02;;;;;;;13.32;60.04;99804.28;5095525;28;20039;-65
2024/02/23 08:42:23;;;;;;;21.73;12.82;;;;;;;13.18;59.89;99790.94;5099194;28;20329;-65
2024/02/23 08:44:49;;;;;;;19.80;14.10;;;;;;;13.30;60.30;99800.16;5095481;28;20028;-66
2024/02/23 08:47:14;;;;;;;22.95;13.35;;;;;;;13.27;59.84;99801.34;5094736;28;20039;-65
2024/02/23 08:49:40;;;;;;;23.55;14.38;;;;;;;13.26;60.71;99794.38;5097952;28;20035;-65
2024/02/23 08:52:05;;;;;;;23.27;14.45;;;;;;;13.35;61.09;99798.63;5095249;28;20059;-64
2024/02/23 08:54:31;;;;;;;20.92;14.43;;;;;;;13.44;60.91;99796.72;5099626;28;20262;-66
2024/02/23 08:56:57;;;;;;;20.45;13.43;;;;;;;13.10;61.38;99797.13;5098566;28;20055;-66
2024/02/23 08:59:22;;;;;;;24.33;14.40;;;;;;;13.27;60.03;99796.03;5099543;28;20042;-65
2024/02/23 09:01:48;;;;;;;24.73;14.85;;;;;;;13.35;61.11;99801.28;5098178;28;20044;-66
2024/02/23 09:04:13;;;;;;;24.75;14.85;;;;;;;13.33;61.60;99800.63;5100172;28;20032;-66
2024/02/23 09:06:39;;;;;;;23.15;14.25;;;;;;;13.49;62.05;99801.50;5099570;28;20048;-65
2024/02/23 09:09:05;;;;;;;23.25;14.68;;;;;;;13.49;61.79;99805.00;5100143;28;20043;-65
2024/02/23 09:11:30;;;;;;;35.42;23.92;;;;;;;13.54;61.29;99796.50;5090472;28;20093;-66
2024/02/23 09:13:55;;;;;;;20.88;14.60;;;;;;;13.68;61.66;99793.88;5099660;28;20207;-66
2024/02/23 09:16:24;;;;;;;22.15;12.95;;;;;;;13.69;61.40;99789.38;5099520;28;20051;-66
2024/02/23 09:18:50;;;;;;;21.50;12.88;;;;;;;13.73;61.68;99790.66;5098904;28;20024;-66
2024/02/23 09:21:15;;;;;;;17.17;11.38;;;;;;;13.75;62.14;99783.31;5099022;28;20039;-66
2024/02/23 09:23:41;;;;;;;18.60;10.73;;;;;;;13.62;61.72;99778.63;5099029;28;20342;-66
2024/02/23 09:26:12;;;;;;;16.45;11.90;;;;;;;13.42;63.87;99780.09;5099412;28;20077;-66
2024/02/23 09:28:40;;;;;;;19.90;12.05;;;;;;;13.21;63.70;99774.63;5098530;28;20060;-66
2024/02/23 09:31:06;;;;;;;18.23;11.02;;;;;;;13.32;63.22;99777.69;5100078;28;20032;-66
2024/02/23 09:33:31;;;;;;;19.85;12.75;;;;;;;13.26;62.26;99772.28;5098382;28;20229;-66
2024/02/23 09:35:57;;;;;;;20.98;12.32;;;;;;;13.31;62.00;99772.56;5100609;28;20040;-65
2024/02/23 09:38:26;;;;;;;24.15;13.90;;;;;;;12.94;64.32;99762.69;5098584;28;20040;-66
2024/02/23 09:40:52;;;;;;;21.40;13.68;;;;;;;12.99;64.44;99758.47;5099028;28;20036;-65
2024/02/23 09:43:18;;;;;;;24.83;13.93;;;;;;;13.24;63.88;99758.31;5094531;28;20040;-65
2024/02/23 09:45:45;;;;;;;21.45;11.77;;;;;;;13.20;64.85;99747.22;5098662;28;20038;-66
2024/02/23 09:48:14;;;;;;;21.83;12.63;;;;;;;13.08;64.20;99752.09;5099363;28;20298;-66
2024/02/23 09:50:41;;;;;;;19.88;12.63;;;;;;;13.27;64.05;99752.66;5098024;28;20040;-64
2024/02/23 09:53:10;;;;;;;20.75;12.18;;;;;;;13.40;62.67;99755.53;5098289;28;20077;-66
2024/02/23 09:55:35;;;;;;;21.27;13.30;;;;;;;13.50;62.22;99750.78;5098353;28;20107;-66
2024/02/23 09:58:03;;;;;;;20.40;12.63;;;;;;;13.41;61.49;99739.38;5098844;28;20068;-66
2024/02/23 10:00:29;;;;;;;19.20;12.23;;;;;;;13.45;62.06;99725.72;5097842;28;20058;-65
2024/02/23 10:02:55;;;;;;;21.95;14.07;;;;;;;13.37;62.41;99730.13;5098400;28;20032;-66
2024/02/23 10:05:29;;;;;;;19.88;12.30;;;;;;;13.41;62.10;99725.25;5097886;28;20086;-66
2024/02/23 10:07:54;;;;;;;20.63;12.63;;;;;;;13.27;62.04;99726.06;5098052;28;20119;-65
2024/02/23 10:10:31;;;;;;;19.15;12.38;;;;;;;13.26;61.81;99713.78;5097188;28;20062;-66
2024/02/23 10:12:57;;;;;;;21.33;12.82;;;;;;;13.24;62.43;99708.63;5098250;28;20038;-66
2024/02/23 10:15:22;;;;;;;23.92;13.38;;;;;;;13.31;64.15;99714.06;5089884;28;20039;-66
2024/02/23 10:17:48;;;;;;;23.48;13.20;;;;;;;13.38;63.36;99712.31;5098739;28;20089;-66
2024/02/23 10:20:14;;;;;;;19.27;12.88;;;;;;;13.23;62.02;99716.78;5097462;28;20031;-65
2024/02/23 10:22:39;;;;;;;22.42;13.65;;;;;;;13.16;62.43;99711.34;5097506;28;20039;-65
2024/02/23 10:25:05;;;;;;;26.77;14.23;;;;;;;13.24;62.73;99703.31;5086871;28;20038;-65
2024/02/23 10:27:30;;;;;;;22.20;13.20;;;;;;;13.26;62.53;99701.31;5097038;28;20042;-65
2024/02/23 10:29:56;;;;;;;20.83;12.70;;;;;;;13.30;63.28;99683.97;5097226;28;20024;-66
2024/02/23 10:32:23;;;;;;;18.85;12.45;;;;;;;13.35;63.05;99680.78;5098580;28;20069;-66
2024/02/23 10:34:51;;;;;;;18.55;12.88;;;;;;;13.43;62.15;99684.19;5097037;28;20066;-65
2024/02/23 10:37:17;;;;;;;20.80;12.95;;;;;;;13.59;63.89;99679.72;5096716;28;20048;-65
2024/02/23 10:39:43;;;;;;;21.23;11.63;;;;;;;13.74;60.48;99681.38;5097045;28;20352;-65
2024/02/23 10:42:10;;;;;;;16.80;11.73;;;;;;;13.70;60.87;99673.94;5096952;28;20109;-66
2024/02/23 10:44:37;;;;;;;19.00;12.02;;;;;;;13.77;60.12;99676.69;5097728;28;20028;-66
2024/02/23 10:47:04;;;;;;;17.08;11.50;;;;;;;13.83;58.73;99668.81;5097161;28;20032;-65
2024/02/23 10:49:31;;;;;;;15.52;10.20;;;;;;;13.75;59.07;99666.25;5097871;28;20074;-66
2024/02/23 10:51:56;;;;;;;17.63;9.88;;;;;;;13.73;59.85;99658.44;5096884;28;20356;-66
2024/02/23 10:54:22;;;;;;;16.35;10.52;;;;;;;13.74;58.60;99659.25;5098729;28;20027;-66
2024/02/23 10:56:50;;;;;;;17.20;9.75;;;;;;;13.86;58.27;99654.31;5092483;28;20325;-67
2024/02/23 10:59:18;;;;;;;17.23;9.88;;;;;;;13.98;58.38;99648.31;5097782;28;20233;-68
2024/02/23 11:01:49;;;;;;;14.77;10.10;;;;;;;14.06;56.69;99642.88;5086796;28;20048;-67
2024/02/23 11:04:16;;;;;;;15.40;10.75;;;;;;;14.11;56.17;99642.31;5097214;28;20024;-68
2024/02/23 11:06:42;;;;;;;17.35;11.25;;;;;;;14.15;57.73;99640.09;5090432;28;20036;-68
2024/02/23 11:09:13;;;;;;;18.33;11.63;;;;;;;14.23;56.81;99634.66;5097478;28;20032;-67
2024/02/23 11:11:38;;;;;;;14.00;8.40;;;;;;;14.27;54.08;99634.09;5095506;28;20062;-68
2024/02/23 11:14:09;;;;;;;14.80;8.68;;;;;;;14.23;54.25;99632.00;5097232;28;20040;-68
2024/02/23 11:16:41;;;;;;;12.82;8.75;;;;;;;14.33;55.06;99624.53;5089267;28;20071;-68